sensor_id;sensor_type;location;lat;lon;timestamp;temperature;humidity
23729;DHT22;12045;60.214;24.724;2022-09-09T00:04:05;7.20;99.90
23729;DHT22;12045;60.214;24.724;2022-09-09T00:07:12;7.20;99.90
23729;DHT22;12045;60.214;24.724;2022-09-09T00:09:46;7.20;99.90
23729;DHT22;12045;60.214;24.724;2022-09-09T00:12:34;7.30;99.90
23729;DHT22;12045;60.214;24.724;2022-09-09T00:15:18;7.40;99.90
23729;DHT22;12045;60.214;24.724;2022-09-09T00:21:01;7.80;99.90
23729;DHT22;12045;60.214;24.724;2022-09-09T00:23:37;7.90;99.90
23729;DHT22;12045;60.214;24.724;2022-09-09T00:26:32;8.10;99.90
23729;DHT22;12045;60.214;24.724;2022-09-09T00:31:39;8.50;99.90
23729;DHT22;12045;60.214;24.724;2022-09-09T00:34:18;8.50;99.90
23729;DHT22;12045;60.214;24.724;2022-09-09T00:36:49;8.40;99.90
23729;DHT22;12045;60.214;24.724;2022-09-09T00:39:31;8.50;99.90
23729;DHT22;12045;60.214;24.724;2022-09-09T00:42:23;8.60;99.90
23729;DHT22;12045;60.214;24.724;2022-09-09T00:47:51;8.70;99.90
23729;DHT22;12045;60.214;24.724;2022-09-09T00:50:50;8.70;99.90
23729;DHT22;12045;60.214;24.724;2022-09-09T00:56:37;8.90;99.90
23729;DHT22;12045;60.214;24.724;2022-09-09T01:01:37;8.90;99.90
23729;DHT22;12045;60.214;24.724;2022-09-09T01:04:13;8.80;99.90
23729;DHT22;12045;60.214;24.724;2022-09-09T01:06:46;8.80;99.90
23729;DHT22;12045;60.214;24.724;2022-09-09T01:14:41;8.80;99.90
23729;DHT22;12045;60.214;24.724;2022-09-09T01:27:34;8.90;99.90
23729;DHT22;12045;60.214;24.724;2022-09-09T01:30:10;8.90;99.90
23729;DHT22;12045;60.214;24.724;2022-09-09T01:35:25;9.00;99.90
23729;DHT22;12045;60.214;24.724;2022-09-09T01:37:54;9.10;99.90
23729;DHT22;12045;60.214;24.724;2022-09-09T01:40:22;9.10;99.90
23729;DHT22;12045;60.214;24.724;2022-09-09T01:42:49;9.10;99.90
23729;DHT22;12045;60.214;24.724;2022-09-09T01:45:17;9.20;99.90
23729;DHT22;12045;60.214;24.724;2022-09-09T01:47:45;9.20;99.90
23729;DHT22;12045;60.214;24.724;2022-09-09T01:50:15;9.20;99.90
23729;DHT22;12045;60.214;24.724;2022-09-09T01:52:46;9.20;99.90
23729;DHT22;12045;60.214;24.724;2022-09-09T01:55:15;9.20;99.90
23729;DHT22;12045;60.214;24.724;2022-09-09T01:58:02;9.30;99.90
23729;DHT22;12045;60.214;24.724;2022-09-09T02:00:33;9.40;99.90
23729;DHT22;12045;60.214;24.724;2022-09-09T02:03:08;9.40;99.90
23729;DHT22;12045;60.214;24.724;2022-09-09T02:05:48;9.50;99.90
23729;DHT22;12045;60.214;24.724;2022-09-09T02:08:46;9.50;99.90
23729;DHT22;12045;60.214;24.724;2022-09-09T02:11:23;9.50;99.90
23729;DHT22;12045;60.214;24.724;2022-09-09T02:13:56;9.40;99.90
23729;DHT22;12045;60.214;24.724;2022-09-09T02:19:18;9.30;99.90
23729;DHT22;12045;60.214;24.724;2022-09-09T02:21:48;9.40;99.90
23729;DHT22;12045;60.214;24.724;2022-09-09T02:24:17;9.40;99.90
23729;DHT22;12045;60.214;24.724;2022-09-09T02:26:46;9.30;99.90
23729;DHT22;12045;60.214;24.724;2022-09-09T02:29:19;9.20;99.90
23729;DHT22;12045;60.214;24.724;2022-09-09T02:31:47;9.20;99.90
23729;DHT22;12045;60.214;24.724;2022-09-09T02:34:18;9.20;99.90
23729;DHT22;12045;60.214;24.724;2022-09-09T02:36:49;9.30;99.90
23729;DHT22;12045;60.214;24.724;2022-09-09T02:39:18;9.40;99.90
23729;DHT22;12045;60.214;24.724;2022-09-09T02:41:46;9.50;99.90
23729;DHT22;12045;60.214;24.724;2022-09-09T02:44:16;9.60;99.90
23729;DHT22;12045;60.214;24.724;2022-09-09T02:52:37;9.90;99.90
23729;DHT22;12045;60.214;24.724;2022-09-09T02:55:15;10.00;99.90
23729;DHT22;12045;60.214;24.724;2022-09-09T02:57:45;10.00;99.90
23729;DHT22;12045;60.214;24.724;2022-09-09T03:00:14;9.80;99.90
23729;DHT22;12045;60.214;24.724;2022-09-09T03:02:42;9.70;99.90
23729;DHT22;12045;60.214;24.724;2022-09-09T03:05:09;9.50;99.90
23729;DHT22;12045;60.214;24.724;2022-09-09T03:07:37;9.40;99.90
23729;DHT22;12045;60.214;24.724;2022-09-09T03:10:06;9.30;99.90
23729;DHT22;12045;60.214;24.724;2022-09-09T03:12:35;9.20;99.90
23729;DHT22;12045;60.214;24.724;2022-09-09T03:15:02;9.10;99.90
23729;DHT22;12045;60.214;24.724;2022-09-09T03:17:30;9.00;99.90
23729;DHT22;12045;60.214;24.724;2022-09-09T03:19:58;9.00;99.90
23729;DHT22;12045;60.214;24.724;2022-09-09T03:22:25;8.90;99.90
23729;DHT22;12045;60.214;24.724;2022-09-09T03:24:54;8.70;99.90
23729;DHT22;12045;60.214;24.724;2022-09-09T03:27:21;8.70;99.90
23729;DHT22;12045;60.214;24.724;2022-09-09T03:29:49;8.60;99.90
23729;DHT22;12045;60.214;24.724;2022-09-09T03:32:19;8.50;99.90
23729;DHT22;12045;60.214;24.724;2022-09-09T03:34:49;8.40;99.90
23729;DHT22;12045;60.214;24.724;2022-09-09T03:37:17;8.40;99.90
23729;DHT22;12045;60.214;24.724;2022-09-09T03:39:44;8.20;99.90
23729;DHT22;12045;60.214;24.724;2022-09-09T03:42:13;8.20;99.90
23729;DHT22;12045;60.214;24.724;2022-09-09T03:44:41;8.10;99.90
23729;DHT22;12045;60.214;24.724;2022-09-09T03:47:09;8.10;99.90
23729;DHT22;12045;60.214;24.724;2022-09-09T03:49:36;8.20;99.90
23729;DHT22;12045;60.214;24.724;2022-09-09T03:52:04;8.20;99.90
23729;DHT22;12045;60.214;24.724;2022-09-09T03:54:31;8.30;99.90
23729;DHT22;12045;60.214;24.724;2022-09-09T03:56:58;8.40;99.90
23729;DHT22;12045;60.214;24.724;2022-09-09T03:59:26;8.40;99.90
23729;DHT22;12045;60.214;24.724;2022-09-09T04:01:57;8.30;99.90
23729;DHT22;12045;60.214;24.724;2022-09-09T04:04:26;9.40;99.90
23729;DHT22;12045;60.214;24.724;2022-09-09T04:06:54;7.80;99.90
23729;DHT22;12045;60.214;24.724;2022-09-09T04:09:22;7.40;99.90
23729;DHT22;12045;60.214;24.724;2022-09-09T04:11:49;7.20;99.90
23729;DHT22;12045;60.214;24.724;2022-09-09T04:14:16;6.90;99.90
23729;DHT22;12045;60.214;24.724;2022-09-09T04:16:45;7.00;99.90
23729;DHT22;12045;60.214;24.724;2022-09-09T04:19:13;7.40;99.90
23729;DHT22;12045;60.214;24.724;2022-09-09T04:21:41;7.00;99.90
23729;DHT22;12045;60.214;24.724;2022-09-09T04:24:09;7.00;99.90
23729;DHT22;12045;60.214;24.724;2022-09-09T04:26:37;6.90;99.90
23729;DHT22;12045;60.214;24.724;2022-09-09T04:29:04;6.80;99.90
23729;DHT22;12045;60.214;24.724;2022-09-09T04:31:34;6.90;99.90
23729;DHT22;12045;60.214;24.724;2022-09-09T04:34:02;7.10;99.90
23729;DHT22;12045;60.214;24.724;2022-09-09T04:36:32;7.10;99.90
23729;DHT22;12045;60.214;24.724;2022-09-09T04:39:00;7.30;99.90
23729;DHT22;12045;60.214;24.724;2022-09-09T04:41:28;7.30;99.90
23729;DHT22;12045;60.214;24.724;2022-09-09T04:43:55;7.40;99.90
23729;DHT22;12045;60.214;24.724;2022-09-09T04:46:23;7.50;99.90
23729;DHT22;12045;60.214;24.724;2022-09-09T04:48:51;7.90;99.90
23729;DHT22;12045;60.214;24.724;2022-09-09T04:51:19;7.60;99.90
23729;DHT22;12045;60.214;24.724;2022-09-09T04:53:47;7.70;99.90
23729;DHT22;12045;60.214;24.724;2022-09-09T04:56:17;8.30;99.90
23729;DHT22;12045;60.214;24.724;2022-09-09T04:58:44;8.10;99.90
23729;DHT22;12045;60.214;24.724;2022-09-09T05:01:21;8.20;99.90
23729;DHT22;12045;60.214;24.724;2022-09-09T05:03:53;8.30;99.90
23729;DHT22;12045;60.214;24.724;2022-09-09T05:06:22;8.40;99.90
23729;DHT22;12045;60.214;24.724;2022-09-09T05:08:50;8.50;99.90
23729;DHT22;12045;60.214;24.724;2022-09-09T05:11:28;8.60;99.90
23729;DHT22;12045;60.214;24.724;2022-09-09T05:13:56;8.80;99.90
23729;DHT22;12045;60.214;24.724;2022-09-09T05:16:25;9.00;99.90
23729;DHT22;12045;60.214;24.724;2022-09-09T05:18:54;9.20;99.90
23729;DHT22;12045;60.214;24.724;2022-09-09T05:21:24;9.40;99.90
23729;DHT22;12045;60.214;24.724;2022-09-09T05:23:58;9.70;99.90
23729;DHT22;12045;60.214;24.724;2022-09-09T05:26:29;9.70;99.90
23729;DHT22;12045;60.214;24.724;2022-09-09T05:29:02;9.90;99.90
23729;DHT22;12045;60.214;24.724;2022-09-09T05:31:30;9.90;99.90
23729;DHT22;12045;60.214;24.724;2022-09-09T05:33:59;11.00;99.90
23729;DHT22;12045;60.214;24.724;2022-09-09T05:36:27;10.20;99.90
23729;DHT22;12045;60.214;24.724;2022-09-09T05:38:55;10.30;99.90
23729;DHT22;12045;60.214;24.724;2022-09-09T05:41:24;10.60;99.90
23729;DHT22;12045;60.214;24.724;2022-09-09T05:43:59;10.40;99.90
23729;DHT22;12045;60.214;24.724;2022-09-09T05:46:28;10.60;99.90
23729;DHT22;12045;60.214;24.724;2022-09-09T05:48:56;10.70;99.90
23729;DHT22;12045;60.214;24.724;2022-09-09T05:51:27;10.90;99.90
23729;DHT22;12045;60.214;24.724;2022-09-09T05:53:57;11.00;99.90
23729;DHT22;12045;60.214;24.724;2022-09-09T05:56:30;11.10;99.90
23729;DHT22;12045;60.214;24.724;2022-09-09T05:59:00;11.20;99.90
23729;DHT22;12045;60.214;24.724;2022-09-09T06:01:31;11.50;99.90
23729;DHT22;12045;60.214;24.724;2022-09-09T06:04:38;11.50;99.90
23729;DHT22;12045;60.214;24.724;2022-09-09T06:10:30;11.90;99.90
23729;DHT22;12045;60.214;24.724;2022-09-09T06:13:00;12.20;99.90
23729;DHT22;12045;60.214;24.724;2022-09-09T06:15:50;12.10;99.90
23729;DHT22;12045;60.214;24.724;2022-09-09T06:18:19;12.10;99.90
23729;DHT22;12045;60.214;24.724;2022-09-09T06:20:58;12.50;99.90
23729;DHT22;12045;60.214;24.724;2022-09-09T06:23:28;12.30;99.90
23729;DHT22;12045;60.214;24.724;2022-09-09T06:26:11;12.30;99.90
23729;DHT22;12045;60.214;24.724;2022-09-09T06:28:40;12.50;99.90
23729;DHT22;12045;60.214;24.724;2022-09-09T06:31:11;12.50;99.90
23729;DHT22;12045;60.214;24.724;2022-09-09T06:33:41;12.60;99.90
23729;DHT22;12045;60.214;24.724;2022-09-09T06:36:12;12.70;99.90
23729;DHT22;12045;60.214;24.724;2022-09-09T06:38:41;12.80;99.90
23729;DHT22;12045;60.214;24.724;2022-09-09T06:41:11;12.90;99.90
23729;DHT22;12045;60.214;24.724;2022-09-09T06:43:41;13.00;99.90
23729;DHT22;12045;60.214;24.724;2022-09-09T06:46:12;13.10;99.90
23729;DHT22;12045;60.214;24.724;2022-09-09T06:48:42;13.30;99.90
23729;DHT22;12045;60.214;24.724;2022-09-09T06:51:20;13.20;99.90
23729;DHT22;12045;60.214;24.724;2022-09-09T06:59:15;13.20;99.90
23729;DHT22;12045;60.214;24.724;2022-09-09T07:01:44;13.30;99.90
23729;DHT22;12045;60.214;24.724;2022-09-09T07:13:05;13.70;99.90
23729;DHT22;12045;60.214;24.724;2022-09-09T07:15:35;13.20;99.90
23729;DHT22;12045;60.214;24.724;2022-09-09T07:26:16;13.40;99.90
23729;DHT22;12045;60.214;24.724;2022-09-09T07:28:47;13.40;99.90
23729;DHT22;12045;60.214;24.724;2022-09-09T07:31:21;13.60;99.90
23729;DHT22;12045;60.214;24.724;2022-09-09T07:39:22;13.90;99.90
23729;DHT22;12045;60.214;24.724;2022-09-09T07:42:00;14.40;99.90
23729;DHT22;12045;60.214;24.724;2022-09-09T07:44:27;14.20;99.90
23729;DHT22;12045;60.214;24.724;2022-09-09T07:46:57;11.40;99.90
23729;DHT22;12045;60.214;24.724;2022-09-09T07:55:29;14.50;99.90
23729;DHT22;12045;60.214;24.724;2022-09-09T07:58:44;14.60;99.90
23729;DHT22;12045;60.214;24.724;2022-09-09T08:01:27;14.50;99.90
23729;DHT22;12045;60.214;24.724;2022-09-09T08:03:59;14.30;99.90
23729;DHT22;12045;60.214;24.724;2022-09-09T08:06:31;14.50;99.90
23729;DHT22;12045;60.214;24.724;2022-09-09T08:09:00;14.50;99.90
23729;DHT22;12045;60.214;24.724;2022-09-09T08:11:29;14.30;99.90
23729;DHT22;12045;60.214;24.724;2022-09-09T08:14:07;14.40;99.90
23729;DHT22;12045;60.214;24.724;2022-09-09T08:17:06;14.40;99.90
23729;DHT22;12045;60.214;24.724;2022-09-09T08:19:42;14.50;99.90
23729;DHT22;12045;60.214;24.724;2022-09-09T08:22:16;14.50;99.90
23729;DHT22;12045;60.214;24.724;2022-09-09T08:24:44;14.70;99.90
23729;DHT22;12045;60.214;24.724;2022-09-09T08:27:19;14.50;99.90
23729;DHT22;12045;60.214;24.724;2022-09-09T08:29:47;14.60;99.90
23729;DHT22;12045;60.214;24.724;2022-09-09T08:32:33;14.50;99.90
23729;DHT22;12045;60.214;24.724;2022-09-09T08:35:18;14.70;99.90
23729;DHT22;12045;60.214;24.724;2022-09-09T08:37:56;14.60;99.90
23729;DHT22;12045;60.214;24.724;2022-09-09T08:40:45;14.80;99.90
23729;DHT22;12045;60.214;24.724;2022-09-09T08:43:19;14.90;99.90
23729;DHT22;12045;60.214;24.724;2022-09-09T08:46:09;14.90;99.90
23729;DHT22;12045;60.214;24.724;2022-09-09T08:49:00;15.10;99.90
23729;DHT22;12045;60.214;24.724;2022-09-09T08:51:35;15.20;99.90
23729;DHT22;12045;60.214;24.724;2022-09-09T08:54:14;17.50;99.90
23729;DHT22;12045;60.214;24.724;2022-09-09T08:57:11;15.10;99.90
23729;DHT22;12045;60.214;24.724;2022-09-09T08:59:51;14.60;99.90
23729;DHT22;12045;60.214;24.724;2022-09-09T09:02:25;13.90;99.90
23729;DHT22;12045;60.214;24.724;2022-09-09T09:05:27;14.80;99.90
23729;DHT22;12045;60.214;24.724;2022-09-09T09:08:31;14.70;99.90
23729;DHT22;12045;60.214;24.724;2022-09-09T09:11:06;14.70;99.90
23729;DHT22;12045;60.214;24.724;2022-09-09T09:19:26;15.00;99.90
23729;DHT22;12045;60.214;24.724;2022-09-09T09:28:18;15.10;99.90
23729;DHT22;12045;60.214;24.724;2022-09-09T09:37:29;15.40;99.90
23729;DHT22;12045;60.214;24.724;2022-09-09T09:39:30;15.60;99.90
23729;DHT22;12045;60.214;24.724;2022-09-09T09:42:19;15.60;99.90
23729;DHT22;12045;60.214;24.724;2022-09-09T09:45:43;15.70;99.90
23729;DHT22;12045;60.214;24.724;2022-09-09T09:48:09;15.50;99.90
23729;DHT22;12045;60.214;24.724;2022-09-09T09:51:09;15.80;99.90
23729;DHT22;12045;60.214;24.724;2022-09-09T09:53:46;15.80;99.90
23729;DHT22;12045;60.214;24.724;2022-09-09T09:56:15;15.90;99.00
23729;DHT22;12045;60.214;24.724;2022-09-09T10:01:27;16.00;98.40
23729;DHT22;12045;60.214;24.724;2022-09-09T10:04:15;16.10;98.70
23729;DHT22;12045;60.214;24.724;2022-09-09T10:06:49;16.50;97.70
23729;DHT22;12045;60.214;24.724;2022-09-09T10:09:29;17.20;96.80
23729;DHT22;12045;60.214;24.724;2022-09-09T10:21:42;19.50;91.80
23729;DHT22;12045;60.214;24.724;2022-09-09T10:24:29;19.50;91.00
23729;DHT22;12045;60.214;24.724;2022-09-09T10:36:01;19.90;89.20
23729;DHT22;12045;60.214;24.724;2022-09-09T10:38:45;20.10;87.70
23729;DHT22;12045;60.214;24.724;2022-09-09T10:42:07;19.90;87.60
23729;DHT22;12045;60.214;24.724;2022-09-09T10:44:34;19.70;86.60
23729;DHT22;12045;60.214;24.724;2022-09-09T10:56:18;20.10;86.10
23729;DHT22;12045;60.214;24.724;2022-09-09T10:58:58;20.00;85.80
23729;DHT22;12045;60.214;24.724;2022-09-09T11:04:27;20.30;84.90
23729;DHT22;12045;60.214;24.724;2022-09-09T11:07:07;20.00;84.10
23729;DHT22;12045;60.214;24.724;2022-09-09T11:09:47;20.50;83.50
23729;DHT22;12045;60.214;24.724;2022-09-09T11:12:19;20.30;84.10
23729;DHT22;12045;60.214;24.724;2022-09-09T11:15:01;20.60;83.00
23729;DHT22;12045;60.214;24.724;2022-09-09T11:17:47;20.70;82.10
23729;DHT22;12045;60.214;24.724;2022-09-09T11:31:44;20.40;80.40
23729;DHT22;12045;60.214;24.724;2022-09-09T11:40:14;19.90;84.10
23729;DHT22;12045;60.214;24.724;2022-09-09T11:42:42;19.40;84.30
23729;DHT22;12045;60.214;24.724;2022-09-09T11:45:19;19.50;84.20
23729;DHT22;12045;60.214;24.724;2022-09-09T11:48:01;19.80;83.40
23729;DHT22;12045;60.214;24.724;2022-09-09T11:50:34;19.90;82.40
23729;DHT22;12045;60.214;24.724;2022-09-09T11:55:41;20.00;81.00
23729;DHT22;12045;60.214;24.724;2022-09-09T12:00:43;20.20;80.90
23729;DHT22;12045;60.214;24.724;2022-09-09T12:03:39;20.30;81.10
23729;DHT22;12045;60.214;24.724;2022-09-09T12:09:07;19.70;81.70
23729;DHT22;12045;60.214;24.724;2022-09-09T12:11:39;20.10;82.20
23729;DHT22;12045;60.214;24.724;2022-09-09T12:14:23;19.70;80.70
23729;DHT22;12045;60.214;24.724;2022-09-09T12:17:19;19.60;80.80
23729;DHT22;12045;60.214;24.724;2022-09-09T12:20:06;19.20;80.40
23729;DHT22;12045;60.214;24.724;2022-09-09T12:22:42;19.30;81.30
23729;DHT22;12045;60.214;24.724;2022-09-09T12:25:32;19.50;81.30
23729;DHT22;12045;60.214;24.724;2022-09-09T12:28:18;19.10;81.30
23729;DHT22;12045;60.214;24.724;2022-09-09T12:33:19;17.90;83.50
23729;DHT22;12045;60.214;24.724;2022-09-09T12:35:55;17.40;85.90
23729;DHT22;12045;60.214;24.724;2022-09-09T12:40:59;16.70;87.50
23729;DHT22;12045;60.214;24.724;2022-09-09T12:43:28;16.50;87.00
23729;DHT22;12045;60.214;24.724;2022-09-09T12:46:08;16.30;88.00
23729;DHT22;12045;60.214;24.724;2022-09-09T12:48:39;16.30;87.90
23729;DHT22;12045;60.214;24.724;2022-09-09T12:51:26;16.20;89.40
23729;DHT22;12045;60.214;24.724;2022-09-09T12:53:58;16.10;90.10
23729;DHT22;12045;60.214;24.724;2022-09-09T12:56:28;15.80;90.30
23729;DHT22;12045;60.214;24.724;2022-09-09T12:58:57;15.80;90.50
23729;DHT22;12045;60.214;24.724;2022-09-09T13:01:32;15.70;90.20
23729;DHT22;12045;60.214;24.724;2022-09-09T13:04:01;15.70;90.30
23729;DHT22;12045;60.214;24.724;2022-09-09T13:06:31;15.70;90.40
23729;DHT22;12045;60.214;24.724;2022-09-09T13:09:01;15.70;90.60
23729;DHT22;12045;60.214;24.724;2022-09-09T13:11:35;15.70;90.70
23729;DHT22;12045;60.214;24.724;2022-09-09T13:14:04;15.60;90.90
23729;DHT22;12045;60.214;24.724;2022-09-09T13:16:34;15.60;91.10
23729;DHT22;12045;60.214;24.724;2022-09-09T13:19:13;15.50;90.60
23729;DHT22;12045;60.214;24.724;2022-09-09T13:21:42;15.50;90.60
23729;DHT22;12045;60.214;24.724;2022-09-09T13:24:30;15.40;90.90
23729;DHT22;12045;60.214;24.724;2022-09-09T13:29:54;15.30;90.90
23729;DHT22;12045;60.214;24.724;2022-09-09T13:32:25;15.30;91.30
23729;DHT22;12045;60.214;24.724;2022-09-09T13:34:59;15.20;91.80
23729;DHT22;12045;60.214;24.724;2022-09-09T13:37:33;15.40;91.60
23729;DHT22;12045;60.214;24.724;2022-09-09T13:40:04;15.30;91.60
23729;DHT22;12045;60.214;24.724;2022-09-09T13:42:38;15.30;91.70
23729;DHT22;12045;60.214;24.724;2022-09-09T13:45:17;15.20;91.60
23729;DHT22;12045;60.214;24.724;2022-09-09T13:47:49;15.30;91.80
23729;DHT22;12045;60.214;24.724;2022-09-09T13:50:22;15.30;91.60
23729;DHT22;12045;60.214;24.724;2022-09-09T13:52:54;15.20;91.60
23729;DHT22;12045;60.214;24.724;2022-09-09T13:55:23;15.00;91.80
23729;DHT22;12045;60.214;24.724;2022-09-09T13:57:52;15.10;92.00
23729;DHT22;12045;60.214;24.724;2022-09-09T14:00:21;15.10;92.50
23729;DHT22;12045;60.214;24.724;2022-09-09T14:02:49;15.10;92.40
23729;DHT22;12045;60.214;24.724;2022-09-09T14:05:18;15.00;92.50
23729;DHT22;12045;60.214;24.724;2022-09-09T14:07:45;14.90;92.60
23729;DHT22;12045;60.214;24.724;2022-09-09T14:10:19;14.90;92.80
23729;DHT22;12045;60.214;24.724;2022-09-09T14:12:47;15.00;92.80
23729;DHT22;12045;60.214;24.724;2022-09-09T14:15:15;15.00;92.80
23729;DHT22;12045;60.214;24.724;2022-09-09T14:17:43;15.00;93.10
23729;DHT22;12045;60.214;24.724;2022-09-09T14:20:11;15.60;93.30
23729;DHT22;12045;60.214;24.724;2022-09-09T14:22:39;15.10;93.30
23729;DHT22;12045;60.214;24.724;2022-09-09T14:25:07;14.60;93.80
23729;DHT22;12045;60.214;24.724;2022-09-09T14:27:35;14.60;93.80
23729;DHT22;12045;60.214;24.724;2022-09-09T14:30:03;14.70;93.80
23729;DHT22;12045;60.214;24.724;2022-09-09T14:32:31;14.80;93.70
23729;DHT22;12045;60.214;24.724;2022-09-09T14:35:00;13.80;93.10
23729;DHT22;12045;60.214;24.724;2022-09-09T14:37:27;14.90;93.30
23729;DHT22;12045;60.214;24.724;2022-09-09T14:39:55;15.00;93.40
23729;DHT22;12045;60.214;24.724;2022-09-09T14:42:23;15.00;93.40
23729;DHT22;12045;60.214;24.724;2022-09-09T14:44:51;14.90;93.40
23729;DHT22;12045;60.214;24.724;2022-09-09T14:47:18;14.80;93.50
23729;DHT22;12045;60.214;24.724;2022-09-09T14:49:46;14.90;93.50
23729;DHT22;12045;60.214;24.724;2022-09-09T14:52:16;14.80;93.60
23729;DHT22;12045;60.214;24.724;2022-09-09T14:54:44;14.80;93.50
23729;DHT22;12045;60.214;24.724;2022-09-09T14:57:11;16.20;93.60
23729;DHT22;12045;60.214;24.724;2022-09-09T14:59:39;14.80;93.40
23729;DHT22;12045;60.214;24.724;2022-09-09T15:02:08;14.80;93.30
23729;DHT22;12045;60.214;24.724;2022-09-09T15:04:36;14.80;93.20
23729;DHT22;12045;60.214;24.724;2022-09-09T15:07:04;13.80;93.00
23729;DHT22;12045;60.214;24.724;2022-09-09T15:09:31;14.70;93.40
23729;DHT22;12045;60.214;24.724;2022-09-09T15:11:59;14.60;93.30
23729;DHT22;12045;60.214;24.724;2022-09-09T15:14:28;14.50;93.80
23729;DHT22;12045;60.214;24.724;2022-09-09T15:16:56;14.50;94.20
23729;DHT22;12045;60.214;24.724;2022-09-09T15:19:23;14.60;94.40
23729;DHT22;12045;60.214;24.724;2022-09-09T15:21:51;14.60;94.20
23729;DHT22;12045;60.214;24.724;2022-09-09T15:24:18;14.50;94.40
23729;DHT22;12045;60.214;24.724;2022-09-09T15:26:46;14.60;94.40
23729;DHT22;12045;60.214;24.724;2022-09-09T15:29:14;14.60;94.70
23729;DHT22;12045;60.214;24.724;2022-09-09T15:31:42;14.60;94.60
23729;DHT22;12045;60.214;24.724;2022-09-09T15:34:10;14.60;94.30
23729;DHT22;12045;60.214;24.724;2022-09-09T15:36:40;14.60;94.10
23729;DHT22;12045;60.214;24.724;2022-09-09T15:39:11;14.60;94.00
23729;DHT22;12045;60.214;24.724;2022-09-09T15:41:43;14.50;94.30
23729;DHT22;12045;60.214;24.724;2022-09-09T15:44:12;14.50;94.50
23729;DHT22;12045;60.214;24.724;2022-09-09T15:46:45;14.40;94.30
23729;DHT22;12045;60.214;24.724;2022-09-09T15:49:18;14.40;94.30
23729;DHT22;12045;60.214;24.724;2022-09-09T15:52:05;14.40;94.20
23729;DHT22;12045;60.214;24.724;2022-09-09T15:54:35;15.00;94.40
23729;DHT22;12045;60.214;24.724;2022-09-09T15:57:07;14.30;94.30
23729;DHT22;12045;60.214;24.724;2022-09-09T15:59:36;14.30;94.70
23729;DHT22;12045;60.214;24.724;2022-09-09T16:02:04;14.30;94.90
23729;DHT22;12045;60.214;24.724;2022-09-09T16:04:32;14.90;95.40
23729;DHT22;12045;60.214;24.724;2022-09-09T16:07:03;14.20;95.90
23729;DHT22;12045;60.214;24.724;2022-09-09T16:09:34;14.10;95.80
23729;DHT22;12045;60.214;24.724;2022-09-09T16:12:04;14.10;96.00
23729;DHT22;12045;60.214;24.724;2022-09-09T16:14:37;14.20;96.00
23729;DHT22;12045;60.214;24.724;2022-09-09T16:17:06;14.20;96.00
23729;DHT22;12045;60.214;24.724;2022-09-09T16:19:34;14.20;96.00
23729;DHT22;12045;60.214;24.724;2022-09-09T16:22:02;14.30;96.10
23729;DHT22;12045;60.214;24.724;2022-09-09T16:24:30;14.00;96.10
23729;DHT22;12045;60.214;24.724;2022-09-09T16:26:57;14.10;96.20
23729;DHT22;12045;60.214;24.724;2022-09-09T16:29:25;14.10;96.40
23729;DHT22;12045;60.214;24.724;2022-09-09T16:31:54;14.10;96.50
23729;DHT22;12045;60.214;24.724;2022-09-09T16:34:28;14.00;96.60
23729;DHT22;12045;60.214;24.724;2022-09-09T16:36:56;14.00;96.60
23729;DHT22;12045;60.214;24.724;2022-09-09T16:39:23;14.00;96.80
23729;DHT22;12045;60.214;24.724;2022-09-09T16:41:52;13.40;96.90
23729;DHT22;12045;60.214;24.724;2022-09-09T16:44:19;13.80;97.30
23729;DHT22;12045;60.214;24.724;2022-09-09T16:46:48;13.80;97.60
23729;DHT22;12045;60.214;24.724;2022-09-09T16:49:24;13.70;97.80
23729;DHT22;12045;60.214;24.724;2022-09-09T16:51:51;13.70;97.90
23729;DHT22;12045;60.214;24.724;2022-09-09T16:54:20;13.80;97.90
23729;DHT22;12045;60.214;24.724;2022-09-09T16:56:49;12.70;97.80
23729;DHT22;12045;60.214;24.724;2022-09-09T16:59:18;13.70;98.20
23729;DHT22;12045;60.214;24.724;2022-09-09T17:01:48;13.70;98.30
23729;DHT22;12045;60.214;24.724;2022-09-09T17:04:25;13.70;98.60
23729;DHT22;12045;60.214;24.724;2022-09-09T17:06:54;13.60;98.80
23729;DHT22;12045;60.214;24.724;2022-09-09T17:09:22;13.60;99.00
23729;DHT22;12045;60.214;24.724;2022-09-09T17:11:50;13.60;99.10
23729;DHT22;12045;60.214;24.724;2022-09-09T17:14:21;13.60;99.20
23729;DHT22;12045;60.214;24.724;2022-09-09T17:16:49;13.60;99.40
23729;DHT22;12045;60.214;24.724;2022-09-09T17:19:17;13.50;99.60
23729;DHT22;12045;60.214;24.724;2022-09-09T17:21:45;13.00;99.60
23729;DHT22;12045;60.214;24.724;2022-09-09T17:24:34;13.30;99.90
23729;DHT22;12045;60.214;24.724;2022-09-09T17:27:02;13.20;99.90
23729;DHT22;12045;60.214;24.724;2022-09-09T17:29:31;13.20;99.90
23729;DHT22;12045;60.214;24.724;2022-09-09T17:31:58;13.10;99.90
23729;DHT22;12045;60.214;24.724;2022-09-09T17:34:26;13.10;99.90
23729;DHT22;12045;60.214;24.724;2022-09-09T17:36:53;13.00;99.90
23729;DHT22;12045;60.214;24.724;2022-09-09T17:39:23;12.80;99.90
23729;DHT22;12045;60.214;24.724;2022-09-09T17:41:51;12.90;99.90
23729;DHT22;12045;60.214;24.724;2022-09-09T17:44:20;12.70;99.90
23729;DHT22;12045;60.214;24.724;2022-09-09T17:46:47;12.50;99.90
23729;DHT22;12045;60.214;24.724;2022-09-09T17:49:16;12.40;99.90
23729;DHT22;12045;60.214;24.724;2022-09-09T17:51:47;12.20;99.90
23729;DHT22;12045;60.214;24.724;2022-09-09T17:54:17;12.10;99.90
23729;DHT22;12045;60.214;24.724;2022-09-09T17:56:46;12.10;99.90
23729;DHT22;12045;60.214;24.724;2022-09-09T17:59:16;12.10;99.90
23729;DHT22;12045;60.214;24.724;2022-09-09T18:01:46;12.10;99.90
23729;DHT22;12045;60.214;24.724;2022-09-09T18:04:15;12.00;99.90
23729;DHT22;12045;60.214;24.724;2022-09-09T18:06:46;11.90;99.90
23729;DHT22;12045;60.214;24.724;2022-09-09T18:09:17;11.80;99.90
23729;DHT22;12045;60.214;24.724;2022-09-09T18:11:47;11.70;99.90
23729;DHT22;12045;60.214;24.724;2022-09-09T18:14:18;11.60;99.90
23729;DHT22;12045;60.214;24.724;2022-09-09T18:16:46;11.40;99.90
23729;DHT22;12045;60.214;24.724;2022-09-09T18:19:17;11.20;99.90
23729;DHT22;12045;60.214;24.724;2022-09-09T18:21:46;11.00;99.90
23729;DHT22;12045;60.214;24.724;2022-09-09T18:24:16;11.00;99.90
23729;DHT22;12045;60.214;24.724;2022-09-09T18:26:44;10.90;99.90
23729;DHT22;12045;60.214;24.724;2022-09-09T18:29:15;10.80;99.90
23729;DHT22;12045;60.214;24.724;2022-09-09T18:31:44;10.70;99.90
23729;DHT22;12045;60.214;24.724;2022-09-09T18:34:15;10.70;99.90
23729;DHT22;12045;60.214;24.724;2022-09-09T18:36:48;10.70;99.90
23729;DHT22;12045;60.214;24.724;2022-09-09T18:39:19;11.20;99.90
23729;DHT22;12045;60.214;24.724;2022-09-09T18:41:49;10.70;99.90